sensor_id;sensor_type;location;lat;lon;timestamp;pressure;altitude;pressure_sealevel;temperature;humidity
60244;BME280;46106;51.468;5.814;2023-03-22T00:01:22;100690.31;;;10.48;100.00
60244;BME280;46106;51.468;5.814;2023-03-22T00:03:48;100697.28;;;10.52;100.00
60244;BME280;46106;51.468;5.814;2023-03-22T00:06:15;100690.94;;;10.52;100.00
60244;BME280;46106;51.468;5.814;2023-03-22T00:08:41;100687.59;;;10.48;100.00
60244;BME280;46106;51.468;5.814;2023-03-22T00:11:07;100684.72;;;10.50;100.00
60244;BME280;46106;51.468;5.814;2023-03-22T00:13:34;100688.56;;;10.47;100.00
60244;BME280;46106;51.468;5.814;2023-03-22T00:16:01;100679.00;;;10.41;100.00
60244;BME280;46106;51.468;5.814;2023-03-22T00:18:28;100658.06;;;10.29;100.00
60244;BME280;46106;51.468;5.814;2023-03-22T00:20:56;100677.88;;;10.44;100.00
60244;BME280;46106;51.468;5.814;2023-03-22T00:23:23;100672.75;;;10.39;100.00
60244;BME280;46106;51.468;5.814;2023-03-22T00:25:49;100667.00;;;10.31;100.00
60244;BME280;46106;51.468;5.814;2023-03-22T00:28:15;100666.06;;;10.32;100.00
60244;BME280;46106;51.468;5.814;2023-03-22T00:30:42;100668.66;;;10.34;100.00
60244;BME280;46106;51.468;5.814;2023-03-22T00:33:14;100663.31;;;10.32;100.00
60244;BME280;46106;51.468;5.814;2023-03-22T00:35:47;100651.97;;;10.25;100.00
60244;BME280;46106;51.468;5.814;2023-03-22T00:38:12;100651.72;;;10.28;100.00
60244;BME280;46106;51.468;5.814;2023-03-22T00:40:38;100653.19;;;10.21;100.00
60244;BME280;46106;51.468;5.814;2023-03-22T00:43:04;100652.59;;;10.18;100.00
60244;BME280;46106;51.468;5.814;2023-03-22T00:45:30;100650.22;;;10.13;100.00
60244;BME280;46106;51.468;5.814;2023-03-22T00:47:56;100641.16;;;10.12;100.00
60244;BME280;46106;51.468;5.814;2023-03-22T00:50:21;100633.06;;;10.11;100.00
60244;BME280;46106;51.468;5.814;2023-03-22T00:52:47;100636.78;;;10.21;100.00
60244;BME280;46106;51.468;5.814;2023-03-22T00:55:12;100629.09;;;10.15;100.00
60244;BME280;46106;51.468;5.814;2023-03-22T00:57:38;100629.22;;;10.14;100.00
60244;BME280;46106;51.468;5.814;2023-03-22T01:00:05;100620.00;;;10.15;100.00
60244;BME280;46106;51.468;5.814;2023-03-22T01:02:41;100619.00;;;10.16;100.00
60244;BME280;46106;51.468;5.814;2023-03-22T01:05:07;100620.63;;;10.18;100.00
60244;BME280;46106;51.468;5.814;2023-03-22T01:07:33;100612.03;;;10.11;100.00
60244;BME280;46106;51.468;5.814;2023-03-22T01:10:03;100606.69;;;10.10;100.00
60244;BME280;46106;51.468;5.814;2023-03-22T01:12:29;100606.19;;;10.16;100.00
60244;BME280;46106;51.468;5.814;2023-03-22T01:14:55;100599.38;;;10.10;100.00
60244;BME280;46106;51.468;5.814;2023-03-22T01:17:20;100607.72;;;10.09;100.00
60244;BME280;46106;51.468;5.814;2023-03-22T01:19:46;100604.09;;;10.08;100.00
60244;BME280;46106;51.468;5.814;2023-03-22T01:22:12;100602.00;;;10.12;100.00
60244;BME280;46106;51.468;5.814;2023-03-22T01:24:37;100589.28;;;10.11;100.00
60244;BME280;46106;51.468;5.814;2023-03-22T01:27:02;100591.53;;;10.06;100.00
60244;BME280;46106;51.468;5.814;2023-03-22T01:29:28;100586.94;;;10.06;100.00
60244;BME280;46106;51.468;5.814;2023-03-22T01:31:55;100586.69;;;9.98;100.00
60244;BME280;46106;51.468;5.814;2023-03-22T01:34:21;100564.19;;;9.94;100.00
60244;BME280;46106;51.468;5.814;2023-03-22T01:36:46;100567.16;;;10.03;100.00
60244;BME280;46106;51.468;5.814;2023-03-22T01:39:12;100561.56;;;10.04;100.00
60244;BME280;46106;51.468;5.814;2023-03-22T01:41:37;100555.00;;;10.07;100.00
60244;BME280;46106;51.468;5.814;2023-03-22T01:44:07;100549.00;;;10.13;100.00
60244;BME280;46106;51.468;5.814;2023-03-22T01:46:32;100540.44;;;10.06;100.00
60244;BME280;46106;51.468;5.814;2023-03-22T01:48:59;100543.41;;;10.15;100.00
60244;BME280;46106;51.468;5.814;2023-03-22T01:51:26;100538.41;;;10.20;100.00
60244;BME280;46106;51.468;5.814;2023-03-22T01:53:55;100540.53;;;10.16;100.00
60244;BME280;46106;51.468;5.814;2023-03-22T01:56:25;100530.72;;;10.14;100.00
60244;BME280;46106;51.468;5.814;2023-03-22T01:58:53;100520.41;;;10.06;100.00
60244;BME280;46106;51.468;5.814;2023-03-22T02:01:19;100523.88;;;10.08;100.00
60244;BME280;46106;51.468;5.814;2023-03-22T02:06:18;100516.06;;;10.03;100.00
60244;BME280;46106;51.468;5.814;2023-03-22T02:08:44;100518.28;;;10.09;100.00
60244;BME280;46106;51.468;5.814;2023-03-22T02:11:17;100500.06;;;9.99;100.00
60244;BME280;46106;51.468;5.814;2023-03-22T02:14:09;100506.84;;;10.16;100.00
60244;BME280;46106;51.468;5.814;2023-03-22T02:27:40;100485.34;;;10.11;100.00
60244;BME280;46106;51.468;5.814;2023-03-22T02:30:36;100479.75;;;10.12;100.00
60244;BME280;46106;51.468;5.814;2023-03-22T02:33:25;100485.94;;;10.15;100.00
60244;BME280;46106;51.468;5.814;2023-03-22T02:39:14;100488.06;;;10.11;100.00
60244;BME280;46106;51.468;5.814;2023-03-22T02:41:46;100480.00;;;10.09;100.00
60244;BME280;46106;51.468;5.814;2023-03-22T02:44:25;100489.56;;;10.15;100.00
60244;BME280;46106;51.468;5.814;2023-03-22T02:47:00;100476.53;;;10.07;100.00
60244;BME280;46106;51.468;5.814;2023-03-22T02:52:32;100481.63;;;10.12;100.00
60244;BME280;46106;51.468;5.814;2023-03-22T03:00:10;100472.41;;;10.02;100.00
60244;BME280;46106;51.468;5.814;2023-03-22T03:02:41;100478.66;;;10.04;100.00
60244;BME280;46106;51.468;5.814;2023-03-22T03:05:08;100471.19;;;10.06;100.00
60244;BME280;46106;51.468;5.814;2023-03-22T03:07:36;100482.50;;;10.01;100.00
60244;BME280;46106;51.468;5.814;2023-03-22T03:10:06;100475.03;;;10.03;100.00
60244;BME280;46106;51.468;5.814;2023-03-22T03:12:32;100473.81;;;9.96;100.00
60244;BME280;46106;51.468;5.814;2023-03-22T03:14:57;100463.84;;;9.95;100.00
60244;BME280;46106;51.468;5.814;2023-03-22T03:20:20;100467.59;;;9.94;100.00
60244;BME280;46106;51.468;5.814;2023-03-22T03:25:58;100461.47;;;10.02;100.00
60244;BME280;46106;51.468;5.814;2023-03-22T03:28:37;100462.38;;;10.02;100.00
60244;BME280;46106;51.468;5.814;2023-03-22T03:31:17;100456.16;;;10.00;100.00
60244;BME280;46106;51.468;5.814;2023-03-22T03:36:21;100456.00;;;10.02;100.00
60244;BME280;46106;51.468;5.814;2023-03-22T03:38:49;100451.44;;;10.02;100.00
60244;BME280;46106;51.468;5.814;2023-03-22T03:41:19;100448.81;;;10.01;100.00
60244;BME280;46106;51.468;5.814;2023-03-22T03:43:46;100448.94;;;9.99;100.00
60244;BME280;46106;51.468;5.814;2023-03-22T03:46:13;100448.09;;;9.99;100.00
60244;BME280;46106;51.468;5.814;2023-03-22T03:48:40;100451.69;;;9.99;100.00
60244;BME280;46106;51.468;5.814;2023-03-22T03:51:07;100449.06;;;9.98;100.00
60244;BME280;46106;51.468;5.814;2023-03-22T03:53:32;100445.06;;;10.02;100.00
60244;BME280;46106;51.468;5.814;2023-03-22T03:55:58;100447.31;;;9.97;100.00
60244;BME280;46106;51.468;5.814;2023-03-22T03:58:23;100459.50;;;10.04;100.00
60244;BME280;46106;51.468;5.814;2023-03-22T04:00:49;100452.03;;;10.06;100.00
60244;BME280;46106;51.468;5.814;2023-03-22T04:03:15;100436.38;;;9.97;100.00
60244;BME280;46106;51.468;5.814;2023-03-22T04:05:41;100452.03;;;10.06;100.00
60244;BME280;46106;51.468;5.814;2023-03-22T04:08:07;100454.16;;;10.02;100.00
60244;BME280;46106;51.468;5.814;2023-03-22T04:10:32;100457.75;;;10.03;100.00
60244;BME280;46106;51.468;5.814;2023-03-22T04:12:59;100454.91;;;10.04;100.00
60244;BME280;46106;51.468;5.814;2023-03-22T04:15:25;100455.16;;;10.01;100.00
60244;BME280;46106;51.468;5.814;2023-03-22T04:17:50;100463.34;;;10.01;100.00
60244;BME280;46106;51.468;5.814;2023-03-22T04:20:18;100464.97;;;10.04;100.00
60244;BME280;46106;51.468;5.814;2023-03-22T04:22:43;100446.81;;;10.03;100.00
60244;BME280;46106;51.468;5.814;2023-03-22T04:25:12;100449.94;;;9.98;100.00
60244;BME280;46106;51.468;5.814;2023-03-22T04:27:39;100451.94;;;9.96;100.00
60244;BME280;46106;51.468;5.814;2023-03-22T04:30:07;100439.75;;;10.00;100.00
60244;BME280;46106;51.468;5.814;2023-03-22T04:32:35;100447.69;;;10.03;100.00
60244;BME280;46106;51.468;5.814;2023-03-22T04:35:01;100438.75;;;10.01;100.00
60244;BME280;46106;51.468;5.814;2023-03-22T04:37:26;100442.75;;;9.97;100.00
60244;BME280;46106;51.468;5.814;2023-03-22T04:39:52;100441.13;;;9.94;100.00
60244;BME280;46106;51.468;5.814;2023-03-22T04:42:18;100445.72;;;9.94;100.00
60244;BME280;46106;51.468;5.814;2023-03-22T04:44:45;100439.25;;;9.95;100.00
60244;BME280;46106;51.468;5.814;2023-03-22T04:47:10;100428.31;;;9.84;100.00
60244;BME280;46106;51.468;5.814;2023-03-22T04:49:36;100428.47;;;9.82;100.00
60244;BME280;46106;51.468;5.814;2023-03-22T04:52:02;100425.88;;;9.81;100.00
60244;BME280;46106;51.468;5.814;2023-03-22T04:54:27;100429.34;;;9.71;100.00
60244;BME280;46106;51.468;5.814;2023-03-22T04:56:53;100425.28;;;9.66;100.00
60244;BME280;46106;51.468;5.814;2023-03-22T04:59:18;100437.94;;;9.67;100.00
60244;BME280;46106;51.468;5.814;2023-03-22T05:01:46;100435.06;;;9.68;100.00
60244;BME280;46106;51.468;5.814;2023-03-22T05:04:12;100423.03;;;9.71;100.00
60244;BME280;46106;51.468;5.814;2023-03-22T05:06:37;100420.53;;;9.68;100.00
60244;BME280;46106;51.468;5.814;2023-03-22T05:09:03;100428.13;;;9.64;100.00
60244;BME280;46106;51.468;5.814;2023-03-22T05:11:28;100429.59;;;9.68;100.00
60244;BME280;46106;51.468;5.814;2023-03-22T05:13:54;100432.47;;;9.67;100.00
60244;BME280;46106;51.468;5.814;2023-03-22T05:16:20;100420.19;;;9.61;100.00
60244;BME280;46106;51.468;5.814;2023-03-22T05:18:46;100427.38;;;9.62;100.00
60244;BME280;46106;51.468;5.814;2023-03-22T05:21:12;100423.66;;;9.63;100.00
60244;BME280;46106;51.468;5.814;2023-03-22T05:23:40;100431.97;;;9.73;100.00
60244;BME280;46106;51.468;5.814;2023-03-22T05:26:07;100422.03;;;9.72;100.00
60244;BME280;46106;51.468;5.814;2023-03-22T05:28:35;100434.81;;;9.83;100.00
60244;BME280;46106;51.468;5.814;2023-03-22T05:31:00;100427.09;;;9.77;100.00
60244;BME280;46106;51.468;5.814;2023-03-22T05:33:27;100432.94;;;9.83;100.00
60244;BME280;46106;51.468;5.814;2023-03-22T05:35:54;100431.81;;;9.86;100.00
60244;BME280;46106;51.468;5.814;2023-03-22T05:38:20;100418.41;;;9.83;100.00
60244;BME280;46106;51.468;5.814;2023-03-22T05:40:47;100417.00;;;9.88;100.00
60244;BME280;46106;51.468;5.814;2023-03-22T05:43:13;100425.97;;;9.90;100.00
60244;BME280;46106;51.468;5.814;2023-03-22T05:45:39;100419.38;;;9.93;100.00
60244;BME280;46106;51.468;5.814;2023-03-22T05:48:05;100428.31;;;9.95;100.00
60244;BME280;46106;51.468;5.814;2023-03-22T05:50:31;100427.56;;;9.93;100.00
60244;BME280;46106;51.468;5.814;2023-03-22T05:52:57;100423.72;;;9.96;100.00
60244;BME280;46106;51.468;5.814;2023-03-22T05:55:23;100416.97;;;10.00;100.00
60244;BME280;46106;51.468;5.814;2023-03-22T05:57:48;100414.38;;;9.98;100.00
60244;BME280;46106;51.468;5.814;2023-03-22T06:00:17;100417.59;;;10.03;100.00
60244;BME280;46106;51.468;5.814;2023-03-22T06:02:45;100410.78;;;9.98;100.00
60244;BME280;46106;51.468;5.814;2023-03-22T06:05:11;100417.47;;;10.05;100.00
60244;BME280;46106;51.468;5.814;2023-03-22T06:07:38;100412.25;;;10.02;100.00
60244;BME280;46106;51.468;5.814;2023-03-22T06:10:05;100410.41;;;10.02;100.00
60244;BME280;46106;51.468;5.814;2023-03-22T06:12:31;100412.25;;;10.02;100.00
60244;BME280;46106;51.468;5.814;2023-03-22T06:14:57;100418.34;;;10.05;100.00
60244;BME280;46106;51.468;5.814;2023-03-22T06:17:23;100398.34;;;9.93;100.00
60244;BME280;46106;51.468;5.814;2023-03-22T06:19:49;100416.34;;;10.07;100.00
60244;BME280;46106;51.468;5.814;2023-03-22T06:22:15;100414.34;;;10.09;100.00
60244;BME280;46106;51.468;5.814;2023-03-22T06:24:41;100414.59;;;10.06;100.00
60244;BME280;46106;51.468;5.814;2023-03-22T06:27:07;100413.50;;;10.09;100.00
60244;BME280;46106;51.468;5.814;2023-03-22T06:29:33;100410.16;;;10.05;100.00
60244;BME280;46106;51.468;5.814;2023-03-22T06:31:58;100423.16;;;10.13;100.00
60244;BME280;46106;51.468;5.814;2023-03-22T06:34:24;100417.16;;;10.19;100.00
60244;BME280;46106;51.468;5.814;2023-03-22T06:36:50;100413.56;;;10.19;100.00
60244;BME280;46106;51.468;5.814;2023-03-22T06:39:16;100416.66;;;10.25;100.00
60244;BME280;46106;51.468;5.814;2023-03-22T06:41:41;100422.50;;;10.32;100.00
60244;BME280;46106;51.468;5.814;2023-03-22T06:44:07;100415.75;;;10.36;100.00
60244;BME280;46106;51.468;5.814;2023-03-22T06:46:32;100415.25;;;10.42;100.00
60244;BME280;46106;51.468;5.814;2023-03-22T06:48:57;100409.44;;;10.36;100.00
60244;BME280;46106;51.468;5.814;2023-03-22T06:51:23;100416.72;;;10.46;100.00
60244;BME280;46106;51.468;5.814;2023-03-22T06:53:48;100420.59;;;10.44;100.00
60244;BME280;46106;51.468;5.814;2023-03-22T06:56:14;100415.56;;;10.49;100.00
60244;BME280;46106;51.468;5.814;2023-03-22T06:58:39;100418.88;;;10.43;100.00
60244;BME280;46106;51.468;5.814;2023-03-22T07:01:05;100412.38;;;10.44;100.00
60244;BME280;46106;51.468;5.814;2023-03-22T07:03:31;100417.25;;;10.40;100.00
60244;BME280;46106;51.468;5.814;2023-03-22T07:06:05;100423.88;;;10.59;100.00
60244;BME280;46106;51.468;5.814;2023-03-22T07:08:31;100418.41;;;10.59;100.00
60244;BME280;46106;51.468;5.814;2023-03-22T07:10:58;100422.34;;;10.66;100.00
60244;BME280;46106;51.468;5.814;2023-03-22T07:13:24;100428.69;;;10.66;100.00
60244;BME280;46106;51.468;5.814;2023-03-22T07:15:57;100419.63;;;10.66;100.00
60244;BME280;46106;51.468;5.814;2023-03-22T07:18:23;100421.28;;;10.78;100.00
60244;BME280;46106;51.468;5.814;2023-03-22T07:20:49;100427.59;;;10.79;100.00
60244;BME280;46106;51.468;5.814;2023-03-22T07:23:14;100429.28;;;10.91;100.00
60244;BME280;46106;51.468;5.814;2023-03-22T07:25:41;100427.53;;;10.90;100.00
60244;BME280;46106;51.468;5.814;2023-03-22T07:28:08;100428.56;;;10.89;100.00
60244;BME280;46106;51.468;5.814;2023-03-22T07:30:36;100428.63;;;10.99;100.00
60244;BME280;46106;51.468;5.814;2023-03-22T07:33:07;100426.88;;;10.98;100.00
60244;BME280;46106;51.468;5.814;2023-03-22T07:35:33;100417.66;;;10.99;100.00
60244;BME280;46106;51.468;5.814;2023-03-22T07:38:04;100401.03;;;10.91;100.00
60244;BME280;46106;51.468;5.814;2023-03-22T07:40:31;100401.31;;;10.88;100.00
60244;BME280;46106;51.468;5.814;2023-03-22T07:42:56;100403.31;;;10.85;100.00
60244;BME280;46106;51.468;5.814;2023-03-22T07:45:24;100407.13;;;10.94;100.00
60244;BME280;46106;51.468;5.814;2023-03-22T07:47:50;100415.38;;;11.04;100.00
60244;BME280;46106;51.468;5.814;2023-03-22T07:50:15;100408.22;;;11.13;100.00
60244;BME280;46106;51.468;5.814;2023-03-22T07:52:43;100427.63;;;11.31;100.00
60244;BME280;46106;51.468;5.814;2023-03-22T07:55:10;100430.50;;;11.29;100.00
60244;BME280;46106;51.468;5.814;2023-03-22T07:57:39;100429.06;;;11.25;100.00
60244;BME280;46106;51.468;5.814;2023-03-22T08:00:07;100422.38;;;11.18;100.00
60244;BME280;46106;51.468;5.814;2023-03-22T08:02:36;100418.63;;;11.19;100.00
60244;BME280;46106;51.468;5.814;2023-03-22T08:05:03;100413.88;;;11.21;100.00
60244;BME280;46106;51.468;5.814;2023-03-22T08:07:29;100426.81;;;11.40;100.00
60244;BME280;46106;51.468;5.814;2023-03-22T08:09:55;100423.66;;;11.45;100.00
60244;BME280;46106;51.468;5.814;2023-03-22T08:12:21;100408.34;;;11.42;100.00
60244;BME280;46106;51.468;5.814;2023-03-22T08:14:47;100415.50;;;11.54;100.00
60244;BME280;46106;51.468;5.814;2023-03-22T08:17:16;100407.28;;;11.74;100.00
60244;BME280;46106;51.468;5.814;2023-03-22T08:19:44;100414.97;;;11.80;100.00
60244;BME280;46106;51.468;5.814;2023-03-22T08:22:10;100421.78;;;11.86;100.00
60244;BME280;46106;51.468;5.814;2023-03-22T08:24:36;100423.56;;;11.97;100.00
60244;BME280;46106;51.468;5.814;2023-03-22T08:27:02;100423.34;;;11.88;100.00
60244;BME280;46106;51.468;5.814;2023-03-22T08:29:27;100407.59;;;11.71;100.00
60244;BME280;46106;51.468;5.814;2023-03-22T08:31:53;100436.19;;;11.78;100.00
60244;BME280;46106;51.468;5.814;2023-03-22T08:34:19;100432.25;;;11.61;100.00
60244;BME280;46106;51.468;5.814;2023-03-22T08:36:45;100433.66;;;11.55;100.00
60244;BME280;46106;51.468;5.814;2023-03-22T08:39:10;100437.59;;;11.63;100.00
60244;BME280;46106;51.468;5.814;2023-03-22T08:41:36;100442.94;;;11.74;100.00
60244;BME280;46106;51.468;5.814;2023-03-22T08:44:01;100444.69;;;11.75;100.00
60244;BME280;46106;51.468;5.814;2023-03-22T08:46:27;100436.34;;;11.86;100.00
60244;BME280;46106;51.468;5.814;2023-03-22T08:48:52;100424.66;;;11.84;100.00
60244;BME280;46106;51.468;5.814;2023-03-22T08:51:20;100429.41;;;11.72;100.00
60244;BME280;46106;51.468;5.814;2023-03-22T08:53:47;100427.47;;;11.94;100.00
60244;BME280;46106;51.468;5.814;2023-03-22T08:56:13;100427.34;;;12.54;100.00
60244;BME280;46106;51.468;5.814;2023-03-22T08:58:41;100428.81;;;12.48;100.00
60244;BME280;46106;51.468;5.814;2023-03-22T09:01:15;100407.63;;;13.08;100.00
60244;BME280;46106;51.468;5.814;2023-03-22T09:03:41;100420.66;;;13.05;100.00
60244;BME280;46106;51.468;5.814;2023-03-22T09:06:07;100424.06;;;13.27;100.00
60244;BME280;46106;51.468;5.814;2023-03-22T09:08:33;100426.00;;;13.07;100.00
60244;BME280;46106;51.468;5.814;2023-03-22T09:10:59;100417.72;;;13.17;100.00
60244;BME280;46106;51.468;5.814;2023-03-22T09:13:24;100417.44;;;13.20;100.00
60244;BME280;46106;51.468;5.814;2023-03-22T09:15:50;100418.44;;;13.19;100.00
60244;BME280;46106;51.468;5.814;2023-03-22T09:18:17;100417.47;;;13.10;100.00
60244;BME280;46106;51.468;5.814;2023-03-22T09:20:43;100417.03;;;13.05;100.00
60244;BME280;46106;51.468;5.814;2023-03-22T09:23:10;100408.47;;;13.08;100.00
60244;BME280;46106;51.468;5.814;2023-03-22T09:25:35;100418.75;;;13.16;100.00
60244;BME280;46106;51.468;5.814;2023-03-22T09:28:01;100386.78;;;13.05;100.00
60244;BME280;46106;51.468;5.814;2023-03-22T09:30:26;100397.19;;;13.11;100.00
60244;BME280;46106;51.468;5.814;2023-03-22T09:32:53;100398.66;;;13.05;100.00
60244;BME280;46106;51.468;5.814;2023-03-22T09:35:18;100399.16;;;12.81;100.00
60244;BME280;46106;51.468;5.814;2023-03-22T09:37:43;100400.13;;;13.00;100.00
60244;BME280;46106;51.468;5.814;2023-03-22T09:40:10;100407.66;;;12.98;100.00
60244;BME280;46106;51.468;5.814;2023-03-22T09:42:45;100398.84;;;12.94;100.00
60244;BME280;46106;51.468;5.814;2023-03-22T09:45:16;100392.94;;;12.89;100.00
60244;BME280;46106;51.468;5.814;2023-03-22T09:47:48;100396.22;;;12.93;100.00
60244;BME280;46106;51.468;5.814;2023-03-22T09:50:21;100398.84;;;12.84;100.00
60244;BME280;46106;51.468;5.814;2023-03-22T09:52:47;100399.31;;;12.70;100.00
60244;BME280;46106;51.468;5.814;2023-03-22T09:55:41;100394.38;;;12.83;100.00
60244;BME280;46106;51.468;5.814;2023-03-22T10:00:58;100395.84;;;12.78;100.00
60244;BME280;46106;51.468;5.814;2023-03-22T10:06:16;100399.03;;;12.73;100.00
60244;BME280;46106;51.468;5.814;2023-03-22T10:12:25;100404.66;;;12.81;100.00
60244;BME280;46106;51.468;5.814;2023-03-22T10:14:36;100392.16;;;12.97;100.00
60244;BME280;46106;51.468;5.814;2023-03-22T10:17:07;100402.75;;;12.82;100.00
60244;BME280;46106;51.468;5.814;2023-03-22T10:22:14;100399.59;;;12.67;100.00
60244;BME280;46106;51.468;5.814;2023-03-22T10:24:42;100405.78;;;12.79;100.00
60244;BME280;46106;51.468;5.814;2023-03-22T10:27:18;100382.94;;;12.88;100.00
60244;BME280;46106;51.468;5.814;2023-03-22T10:29:52;100383.41;;;12.74;100.00
60244;BME280;46106;51.468;5.814;2023-03-22T10:32:31;100390.34;;;12.78;100.00
60244;BME280;46106;51.468;5.814;2023-03-22T10:34:59;100386.28;;;12.72;100.00
60244;BME280;46106;51.468;5.814;2023-03-22T10:37:30;100375.31;;;12.62;100.00
60244;BME280;46106;51.468;5.814;2023-03-22T10:39:59;100377.63;;;12.57;100.00
60244;BME280;46106;51.468;5.814;2023-03-22T10:42:27;100386.47;;;12.51;100.00
60244;BME280;46106;51.468;5.814;2023-03-22T10:44:57;100370.13;;;12.59;100.00
60244;BME280;46106;51.468;5.814;2023-03-22T10:47:42;100382.53;;;12.83;100.00
60244;BME280;46106;51.468;5.814;2023-03-22T10:50:16;100380.94;;;12.71;100.00
60244;BME280;46106;51.468;5.814;2023-03-22T10:52:58;100387.47;;;12.69;100.00
60244;BME280;46106;51.468;5.814;2023-03-22T10:55:26;100376.91;;;12.65;100.00
60244;BME280;46106;51.468;5.814;2023-03-22T10:58:13;100379.53;;;12.47;100.00
60244;BME280;46106;51.468;5.814;2023-03-22T11:01:06;100387.19;;;12.43;100.00
60244;BME280;46106;51.468;5.814;2023-03-22T11:03:40;100394.72;;;12.31;100.00
60244;BME280;46106;51.468;5.814;2023-03-22T11:06:16;100391.09;;;12.21;100.00
60244;BME280;46106;51.468;5.814;2023-03-22T11:08:50;100392.13;;;12.30;100.00
60244;BME280;46106;51.468;5.814;2023-03-22T11:11:31;100389.38;;;12.40;100.00
60244;BME280;46106;51.468;5.814;2023-03-22T11:16:24;100393.84;;;12.41;100.00
60244;BME280;46106;51.468;5.814;2023-03-22T11:18:50;100380.25;;;12.49;100.00
60244;BME280;46106;51.468;5.814;2023-03-22T11:21:16;100389.66;;;12.56;100.00
60244;BME280;46106;51.468;5.814;2023-03-22T11:24:02;100375.66;;;12.49;100.00
60244;BME280;46106;51.468;5.814;2023-03-22T11:26:35;100388.34;;;12.41;100.00
60244;BME280;46106;51.468;5.814;2023-03-22T11:30:07;100382.28;;;12.37;100.00
60244;BME280;46106;51.468;5.814;2023-03-22T11:31:59;100393.84;;;12.31;100.00
60244;BME280;46106;51.468;5.814;2023-03-22T11:34:28;100392.13;;;12.30;100.00
60244;BME280;46106;51.468;5.814;2023-03-22T11:36:54;100393.53;;;12.24;100.00
60244;BME280;46106;51.468;5.814;2023-03-22T11:39:25;100391.22;;;12.20;100.00
60244;BME280;46106;51.468;5.814;2023-03-22T11:41:56;100383.88;;;12.30;100.00
60244;BME280;46106;51.468;5.814;2023-03-22T11:44:25;100392.84;;;12.42;100.00
60244;BME280;46106;51.468;5.814;2023-03-22T11:46:54;100389.53;;;12.28;100.00
60244;BME280;46106;51.468;5.814;2023-03-22T11:49:24;100387.19;;;12.24;100.00
60244;BME280;46106;51.468;5.814;2023-03-22T11:51:52;100392.69;;;12.34;100.00
60244;BME280;46106;51.468;5.814;2023-03-22T11:54:28;100384.72;;;12.11;100.00
60244;BME280;46106;51.468;5.814;2023-03-22T11:56:58;100393.41;;;12.16;100.00
60244;BME280;46106;51.468;5.814;2023-03-22T11:59:29;100396.44;;;12.13;100.00
60244;BME280;46106;51.468;5.814;2023-03-22T12:04:43;100392.69;;;12.14;100.00
60244;BME280;46106;51.468;5.814;2023-03-22T12:07:19;100398.59;;;12.00;100.00
60244;BME280;46106;51.468;5.814;2023-03-22T12:09:57;100396.69;;;12.00;100.00
60244;BME280;46106;51.468;5.814;2023-03-22T12:12:29;100400.06;;;12.13;100.00
60244;BME280;46106;51.468;5.814;2023-03-22T12:15:14;100399.59;;;12.08;100.00
60244;BME280;46106;51.468;5.814;2023-03-22T12:17:47;100383.72;;;11.92;100.00
60244;BME280;46106;51.468;5.814;2023-03-22T12:22:49;100384.44;;;12.14;100.00
60244;BME280;46106;51.468;5.814;2023-03-22T12:25:20;100392.84;;;12.22;100.00
60244;BME280;46106;51.468;5.814;2023-03-22T12:28:01;100383.72;;;12.12;100.00
60244;BME280;46106;51.468;5.814;2023-03-22T12:30:30;100386.03;;;12.07;100.00
60244;BME280;46106;51.468;5.814;2023-03-22T12:33:18;100373.19;;;12.27;100.00
60244;BME280;46106;51.468;5.814;2023-03-22T12:35:47;100366.38;;;12.31;100.00
60244;BME280;46106;51.468;5.814;2023-03-22T12:38:21;100365.53;;;12.30;100.00
60244;BME280;46106;51.468;5.814;2023-03-22T12:40:50;100353.97;;;12.27;100.00
60244;BME280;46106;51.468;5.814;2023-03-22T12:43:47;100356.44;;;12.40;100.00
60244;BME280;46106;51.468;5.814;2023-03-22T12:46:25;100354.97;;;12.36;100.00
60244;BME280;46106;51.468;5.814;2023-03-22T12:51:17;100346.44;;;12.48;100.00
60244;BME280;46106;51.468;5.814;2023-03-22T12:53:46;100348.19;;;12.49;100.00
60244;BME280;46106;51.468;5.814;2023-03-22T12:56:44;100342.69;;;12.49;100.00
60244;BME280;46106;51.468;5.814;2023-03-22T12:59:30;100350.16;;;12.57;100.00
60244;BME280;46106;51.468;5.814;2023-03-22T13:07:08;100350.47;;;12.54;100.00
60244;BME280;46106;51.468;5.814;2023-03-22T13:09:39;100353.06;;;12.56;100.00
60244;BME280;46106;51.468;5.814;2023-03-22T13:17:33;100342.94;;;12.66;100.00
60244;BME280;46106;51.468;5.814;2023-03-22T13:25:33;100353.66;;;12.59;100.00
60244;BME280;46106;51.468;5.814;2023-03-22T13:30:54;100340.66;;;12.52;100.00
60244;BME280;46106;51.468;5.814;2023-03-22T13:33:28;100343.69;;;12.58;100.00
60244;BME280;46106;51.468;5.814;2023-03-22T13:35:59;100340.06;;;12.58;100.00
60244;BME280;46106;51.468;5.814;2023-03-22T13:38:34;100340.94;;;12.58;100.00
60244;BME280;46106;51.468;5.814;2023-03-22T13:59:13;100345.09;;;12.62;100.00
60244;BME280;46106;51.468;5.814;2023-03-22T14:01:52;100336.28;;;12.68;100.00
60244;BME280;46106;51.468;5.814;2023-03-22T14:04:24;100345.22;;;12.71;100.00
60244;BME280;46106;51.468;5.814;2023-03-22T14:07:07;100345.06;;;12.72;100.00
60244;BME280;46106;51.468;5.814;2023-03-22T14:09:44;100338.03;;;12.69;100.00
60244;BME280;46106;51.468;5.814;2023-03-22T14:15:00;100333.09;;;12.73;100.00
60244;BME280;46106;51.468;5.814;2023-03-22T14:20:14;100332.22;;;12.73;100.00
60244;BME280;46106;51.468;5.814;2023-03-22T14:22:46;100332.78;;;12.76;100.00
60244;BME280;46106;51.468;5.814;2023-03-22T14:25:21;100335.97;;;12.81;100.00
60244;BME280;46106;51.468;5.814;2023-03-22T14:27:48;100330.63;;;12.80;100.00